Time;durP1;ratioP1;P1;durP2;ratioP2;P2;SDS_P1;SDS_P2;PMS_P1;PMS_P2;Temp;Humidity;BMP_temperature;BMP_pressure;BME280_temperature;BME280_humidity;BME280_pressure;Samples;Min_cycle;Max_cycle;Signal;HPM_P1;HPM_P2
2024/01/31 00:02:32;;;;;;;4.97;3.20;;;;;;;7.44;100.00;99765.94;15287540;19;20021;-55
2024/01/31 00:08:00;;;;;;;4.38;3.20;;;;;;;7.46;100.00;99766.69;15290407;19;20440;-56
2024/01/31 00:13:25;;;;;;;4.65;3.00;;;;;;;7.48;100.00;99772.78;15288393;19;20012;-55
2024/01/31 00:18:51;;;;;;;5.93;3.20;;;;;;;7.46;100.00;99777.41;15282362;19;20022;-52
2024/01/31 00:24:18;;;;;;;5.15;3.20;;;;;;;7.45;100.00;99783.75;15284914;19;20479;-51
2024/01/31 00:29:43;;;;;;;5.60;3.40;;;;;;;7.45;100.00;99794.47;15288873;19;20102;-54
2024/01/31 00:35:07;;;;;;;7.63;5.35;;;;;;;7.64;100.00;99788.66;15287139;19;20034;-53
2024/01/31 00:40:35;;;;;;;7.47;6.20;;;;;;;7.80;100.00;99794.66;15283542;19;20021;-54
2024/01/31 00:45:59;;;;;;;9.60;6.50;;;;;;;7.88;100.00;99786.03;15288466;19;20020;-52
2024/01/31 00:51:24;;;;;;;10.82;7.20;;;;;;;7.96;100.00;99788.19;15283941;19;20021;-54
2024/01/31 00:56:52;;;;;;;9.38;6.72;;;;;;;8.00;100.00;99795.03;15284239;19;20563;-52
2024/01/31 01:02:18;;;;;;;12.27;7.75;;;;;;;8.04;100.00;99801.91;15282855;19;20074;-56
2024/01/31 01:07:45;;;;;;;9.90;6.68;;;;;;;8.07;100.00;99811.53;15286390;19;20467;-51
2024/01/31 01:13:13;;;;;;;9.77;6.70;;;;;;;8.11;100.00;99818.41;15283012;19;20020;-55
2024/01/31 01:18:37;;;;;;;11.07;6.22;;;;;;;8.16;100.00;99816.28;15287933;19;20027;-54
2024/01/31 01:24:02;;;;;;;9.18;6.20;;;;;;;8.16;100.00;99805.53;15282691;19;20014;-52
2024/01/31 01:29:30;;;;;;;8.88;5.85;;;;;;;8.17;100.00;99807.25;15285390;19;20011;-52
2024/01/31 01:34:55;;;;;;;8.05;5.90;;;;;;;8.17;100.00;99796.50;15022235;19;5001625;-52
2024/01/31 01:40:20;;;;;;;9.25;5.43;;;;;;;8.15;100.00;99793.91;15277411;19;20007;-53
2024/01/31 01:45:48;;;;;;;9.85;5.93;;;;;;;8.14;100.00;99802.09;15278513;19;20535;-50
2024/01/31 01:51:25;;;;;;;6.95;5.10;;;;;;;8.12;100.00;99804.88;15276305;19;20022;-56
2024/01/31 01:56:52;;;;;;;8.50;5.43;;;;;;;8.12;100.00;99804.03;15277258;19;20021;-54
2024/01/31 02:02:20;;;;;;;8.43;5.07;;;;;;;8.13;100.00;99795.84;15293820;19;20013;-56
2024/01/31 02:07:46;;;;;;;6.72;4.53;;;;;;;8.13;100.00;99797.69;15295269;19;20078;-54
2024/01/31 02:13:10;;;;;;;7.80;4.93;;;;;;;8.07;100.00;99803.50;15294409;19;20378;-55
2024/01/31 02:18:38;;;;;;;6.20;4.55;;;;;;;8.04;100.00;99803.75;15298390;19;20097;-56
2024/01/31 02:24:05;;;;;;;6.20;4.53;;;;;;;7.96;100.00;99791.72;15291842;19;20027;-54
2024/01/31 02:29:30;;;;;;;6.72;4.72;;;;;;;7.85;100.00;99783.56;15294647;19;20665;-54
2024/01/31 02:34:54;;;;;;;9.15;5.18;;;;;;;7.70;100.00;99798.94;15293360;19;20257;-51
2024/01/31 02:40:22;;;;;;;8.38;4.75;;;;;;;7.51;100.00;99797.59;15287220;19;20790;-52
2024/01/31 02:45:46;;;;;;;5.80;4.90;;;;;;;7.37;100.00;99814.59;15290914;19;20032;-52
2024/01/31 02:51:17;;;;;;;4.68;3.85;;;;;;;7.32;100.00;99811.41;15287202;19;20555;-53
2024/01/31 02:56:45;;;;;;;6.73;4.27;;;;;;;7.27;100.00;99816.22;15286529;19;20042;-53
2024/01/31 03:02:09;;;;;;;6.10;3.72;;;;;;;7.15;100.00;99814.38;15291176;19;20078;-52
2024/01/31 03:07:34;;;;;;;6.22;3.70;;;;;;;7.14;100.00;99815.34;15294821;19;20476;-53
2024/01/31 03:13:01;;;;;;;5.75;3.50;;;;;;;7.06;100.00;99806.00;15290738;19;20451;-52
2024/01/31 03:18:26;;;;;;;4.68;3.45;;;;;;;7.03;100.00;99806.22;15294043;19;20018;-52
2024/01/31 03:23:51;;;;;;;5.13;3.67;;;;;;;6.92;100.00;99824.84;15294713;19;20277;-51
2024/01/31 03:29:20;;;;;;;7.22;3.50;;;;;;;6.90;100.00;99826.75;15285461;19;20026;-53
2024/01/31 03:34:44;;;;;;;6.15;3.72;;;;;;;6.85;100.00;99828.91;15292186;19;20011;-53
2024/01/31 03:40:11;;;;;;;5.57;3.70;;;;;;;6.72;100.00;99839.56;15290045;19;20018;-55
2024/01/31 03:45:40;;;;;;;7.13;3.60;;;;;;;6.61;100.00;99838.44;15289127;19;20086;-56
2024/01/31 03:51:06;;;;;;;4.43;3.05;;;;;;;6.48;100.00;99830.38;15287001;19;20021;-58
2024/01/31 03:56:30;;;;;;;5.20;3.08;;;;;;;6.37;100.00;99840.94;15294470;19;20495;-56
2024/01/31 04:01:58;;;;;;;5.25;3.90;;;;;;;6.31;100.00;99858.25;15281300;19;20102;-53
2024/01/31 04:07:22;;;;;;;5.75;4.03;;;;;;;6.26;100.00;99870.19;15287737;19;20675;-58
2024/01/31 04:12:48;;;;;;;6.75;3.72;;;;;;;6.19;100.00;99867.06;15287468;19;20015;-56
2024/01/31 04:18:15;;;;;;;5.20;3.60;;;;;;;6.12;100.00;99866.59;15282884;19;20015;-56
2024/01/31 04:23:40;;;;;;;5.53;3.55;;;;;;;6.04;100.00;99870.69;15293287;19;20021;-51
2024/01/31 04:29:08;;;;;;;6.03;3.58;;;;;;;5.96;100.00;99881.84;15288103;19;20020;-56
2024/01/31 04:34:37;;;;;;;4.63;3.60;;;;;;;5.93;100.00;99874.03;15281884;19;20013;-56
2024/01/31 04:40:01;;;;;;;4.68;3.58;;;;;;;5.80;100.00;99888.16;15278120;19;20379;-57
2024/01/31 04:45:26;;;;;;;5.68;3.70;;;;;;;5.64;100.00;99895.38;15283404;19;20082;-56
2024/01/31 04:50:53;;;;;;;6.20;3.92;;;;;;;5.52;100.00;99891.66;15273950;19;20363;-57
2024/01/31 04:56:18;;;;;;;6.45;4.20;;;;;;;5.49;100.00;99889.16;15274431;19;20014;-54
2024/01/31 05:01:43;;;;;;;5.53;3.75;;;;;;;5.50;100.00;99882.88;15282234;19;20508;-54
2024/01/31 05:07:11;;;;;;;4.30;3.63;;;;;;;5.48;100.00;99882.09;15277780;19;20074;-57
2024/01/31 05:12:35;;;;;;;5.53;3.80;;;;;;;5.39;100.00;99879.03;15281784;19;20113;-52
2024/01/31 05:18:01;;;;;;;4.32;3.70;;;;;;;5.25;100.00;99882.50;15273539;19;20014;-54
2024/01/31 05:23:28;;;;;;;4.50;3.63;;;;;;;5.15;100.00;99878.66;15286378;19;20702;-57
2024/01/31 05:28:53;;;;;;;5.57;4.00;;;;;;;5.19;100.00;99879.34;15290560;19;20078;-55
2024/01/31 05:34:17;;;;;;;6.50;3.95;;;;;;;5.25;100.00;99890.53;15292342;19;20018;-55
2024/01/31 05:39:45;;;;;;;6.13;4.20;;;;;;;5.28;100.00;99889.50;15295997;19;20010;-55
2024/01/31 05:45:09;;;;;;;6.05;4.00;;;;;;;5.31;100.00;99880.44;15304097;19;20010;-58
2024/01/31 05:50:41;;;;;;;4.10;3.65;;;;;;;5.39;100.00;99875.47;15299174;19;20022;-57
2024/01/31 05:56:09;;;;;;;5.67;4.13;;;;;;;5.41;100.00;99878.94;15298566;19;20029;-57
2024/01/31 06:01:34;;;;;;;5.45;3.63;;;;;;;5.42;100.00;99872.63;15293844;19;20021;-53
2024/01/31 06:06:59;;;;;;;5.70;3.55;;;;;;;5.44;100.00;99873.41;15293458;19;20011;-55
2024/01/31 06:12:26;;;;;;;5.53;3.80;;;;;;;5.46;100.00;99871.50;15289110;19;20352;-54
2024/01/31 06:17:51;;;;;;;4.18;3.78;;;;;;;5.44;100.00;99877.88;15289965;19;20543;-55
2024/01/31 06:23:16;;;;;;;5.47;3.92;;;;;;;5.44;100.00;99892.13;15301924;19;20523;-54
2024/01/31 06:28:44;;;;;;;5.90;4.07;;;;;;;5.43;100.00;99885.03;15313129;19;20035;-56
2024/01/31 06:34:09;;;;;;;5.53;4.07;;;;;;;5.39;100.00;99892.41;15291560;19;20074;-55
2024/01/31 06:39:34;;;;;;;6.55;4.13;;;;;;;5.41;100.00;99884.28;15292760;19;20019;-56
2024/01/31 06:45:08;;;;;;;4.47;4.00;;;;;;;5.41;100.00;99884.28;15288542;19;20024;-56
2024/01/31 06:50:33;;;;;;;5.05;4.00;;;;;;;5.39;100.00;99886.16;15292566;19;20078;-53
2024/01/31 06:55:59;;;;;;;4.55;3.85;;;;;;;5.43;100.00;99898.41;15295038;19;20027;-56
2024/01/31 07:01:27;;;;;;;6.07;4.15;;;;;;;5.48;100.00;99896.31;15292688;19;20014;-55
2024/01/31 07:06:51;;;;;;;4.15;3.67;;;;;;;5.50;100.00;99904.25;15288943;19;20020;-57
2024/01/31 07:12:16;;;;;;;5.15;3.63;;;;;;;5.56;100.00;99922.59;15286972;19;20371;-55
2024/01/31 07:17:43;;;;;;;3.95;3.22;;;;;;;5.62;100.00;99943.63;15283559;19;20025;-55
2024/01/31 07:23:08;;;;;;;3.47;3.05;;;;;;;5.68;100.00;99940.56;15288828;19;20018;-54
2024/01/31 07:28:36;;;;;;;4.40;3.55;;;;;;;5.75;100.00;99943.72;15289404;19;20118;-56
2024/01/31 07:34:10;;;;;;;7.72;3.60;;;;;;;5.76;100.00;99937.44;15285845;19;20078;-56
2024/01/31 07:39:35;;;;;;;4.88;3.72;;;;;;;5.76;100.00;99948.13;15289902;19;20024;-55
2024/01/31 07:44:59;;;;;;;5.57;3.38;;;;;;;5.73;100.00;99947.47;15288364;19;20613;-53
2024/01/31 07:50:27;;;;;;;5.35;4.10;;;;;;;5.72;100.00;99949.25;15279632;19;20022;-55
2024/01/31 07:55:51;;;;;;;4.32;3.50;;;;;;;5.72;100.00;99941.22;15282945;19;20471;-55
2024/01/31 08:01:19;;;;;;;6.22;3.60;;;;;;;5.73;100.00;99956.31;15282626;19;20017;-53
2024/01/31 08:06:46;;;;;;;4.95;3.70;;;;;;;5.75;100.00;99941.06;15289343;19;20601;-55
2024/01/31 08:12:11;;;;;;;5.07;3.78;;;;;;;5.75;100.00;99946.41;15282347;19;20021;-56
2024/01/31 08:17:35;;;;;;;3.88;3.47;;;;;;;5.73;100.00;99959.00;15282448;19;20019;-55
2024/01/31 08:23:03;;;;;;;5.15;3.95;;;;;;;5.75;100.00;99966.94;15283746;19;20230;-55
2024/01/31 08:28:28;;;;;;;5.30;3.72;;;;;;;5.78;100.00;99969.41;15287974;19;20086;-56
2024/01/31 08:33:53;;;;;;;4.18;3.78;;;;;;;5.83;100.00;99965.50;15290005;19;20035;-56
2024/01/31 08:39:22;;;;;;;4.32;3.63;;;;;;;5.90;100.00;99967.84;15280428;19;20042;-52
2024/01/31 08:44:47;;;;;;;4.82;3.83;;;;;;;5.96;100.00;99970.13;15284090;19;20021;-55
2024/01/31 08:50:12;;;;;;;5.35;3.53;;;;;;;6.01;100.00;99970.75;15282348;19;20022;-54
2024/01/31 08:55:40;;;;;;;4.68;3.70;;;;;;;6.02;100.00;99969.78;15287824;19;20793;-56
2024/01/31 09:01:21;;;;;;;4.70;3.58;;;;;;;6.06;100.00;99976.66;15282265;19;20037;-52
2024/01/31 09:06:46;;;;;;;5.28;4.10;;;;;;;6.07;100.00;99977.53;15284505;19;20022;-55
2024/01/31 09:12:14;;;;;;;3.70;3.30;;;;;;;6.10;100.00;99980.88;15279744;19;20051;-55
2024/01/31 09:17:39;;;;;;;5.20;3.50;;;;;;;6.13;100.00;99988.72;15277044;19;20090;-55
2024/01/31 09:23:05;;;;;;;3.80;3.03;;;;;;;6.13;100.00;99994.06;15273370;19;20084;-56
2024/01/31 09:28:32;;;;;;;3.70;2.95;;;;;;;6.20;100.00;99999.03;15280173;19;20695;-57
2024/01/31 09:33:58;;;;;;;3.38;2.78;;;;;;;6.21;100.00;99996.28;15285687;19;20018;-56
2024/01/31 09:39:24;;;;;;;3.35;2.58;;;;;;;6.19;100.00;100008.00;15277841;19;20042;-57
2024/01/31 09:44:51;;;;;;;3.15;2.85;;;;;;;6.14;100.00;100017.22;15282210;19;20019;-56
2024/01/31 09:50:18;;;;;;;2.72;2.53;;;;;;;6.13;100.00;100026.19;15277873;19;20018;-56
2024/01/31 09:55:44;;;;;;;3.47;2.70;;;;;;;6.13;100.00;100015.50;15279302;19;20779;-57
2024/01/31 10:01:11;;;;;;;2.60;2.40;;;;;;;6.13;100.00;100007.47;15278842;19;20026;-55
2024/01/31 10:06:45;;;;;;;2.88;2.58;;;;;;;6.17;100.00;100002.78;15279070;19;20022;-56
2024/01/31 10:12:11;;;;;;;3.28;2.50;;;;;;;6.19;100.00;100002.66;15278682;19;20520;-58
2024/01/31 10:17:39;;;;;;;3.65;2.58;;;;;;;6.18;100.00;99980.41;15278710;19;20035;-54
2024/01/31 10:23:04;;;;;;;4.45;2.50;;;;;;;6.16;100.00;99976.97;15291502;19;20078;-57
2024/01/31 10:28:28;;;;;;;3.47;2.30;;;;;;;6.12;100.00;99986.13;15287361;19;20028;-57
2024/01/31 10:33:57;;;;;;;3.38;2.45;;;;;;;6.11;100.00;99990.63;15294897;19;20021;-54
2024/01/31 10:39:23;;;;;;;5.13;2.15;;;;;;;6.10;100.00;99991.56;15291096;19;20028;-54
2024/01/31 10:44:50;;;;;;;2.63;2.30;;;;;;;6.07;100.00;99989.09;15295033;19;20018;-55
2024/01/31 10:50:18;;;;;;;3.25;2.20;;;;;;;6.06;100.00;99982.00;15294445;19;20093;-54
2024/01/31 10:55:43;;;;;;;2.45;2.15;;;;;;;6.07;100.00;99970.34;15290706;19;20341;-54
2024/01/31 11:01:12;;;;;;;1.95;1.70;;;;;;;6.00;100.00;99977.91;15286017;19;20022;-57
2024/01/31 11:06:44;;;;;;;1.60;1.40;;;;;;;5.98;100.00;99970.88;15293837;19;20094;-57
2024/01/31 11:12:14;;;;;;;1.60;1.50;;;;;;;5.99;100.00;99967.25;15286185;19;20018;-56
2024/01/31 11:17:44;;;;;;;1.40;1.30;;;;;;;5.97;100.00;99956.66;15289559;19;20444;-58
2024/01/31 11:23:12;;;;;;;1.80;1.50;;;;;;;5.98;100.00;99947.69;15284293;19;20025;-58
2024/01/31 11:28:43;;;;;;;2.83;1.30;;;;;;;6.03;100.00;99955.47;15291269;19;20018;-55
2024/01/31 11:34:08;;;;;;;1.65;1.20;;;;;;;6.04;100.00;99956.31;15283094;19;20078;-57
2024/01/31 11:39:36;;;;;;;1.40;1.30;;;;;;;6.05;100.00;99942.84;15288641;19;20014;-53
2024/01/31 11:45:01;;;;;;;2.10;1.20;;;;;;;6.04;100.00;99949.16;15292744;19;20081;-54
2024/01/31 11:50:27;;;;;;;1.13;1.10;;;;;;;5.99;100.00;99962.81;15288570;19;20028;-58
2024/01/31 11:55:55;;;;;;;0.93;0.93;;;;;;;5.94;100.00;99967.53;15291513;19;20010;-56
2024/01/31 12:01:20;;;;;;;1.45;1.10;;;;;;;5.96;100.00;99960.28;15287581;19;20025;-56
2024/01/31 12:06:45;;;;;;;1.48;1.10;;;;;;;5.98;100.00;99955.72;15278879;19;20018;-57
2024/01/31 12:12:12;;;;;;;1.73;1.05;;;;;;;6.01;100.00;99933.28;15287335;19;20401;-55
2024/01/31 12:17:37;;;;;;;0.85;0.85;;;;;;;6.05;100.00;99924.13;15288692;19;20086;-55
2024/01/31 12:23:01;;;;;;;1.52;1.20;;;;;;;6.08;100.00;99921.22;15286441;19;20018;-55
2024/01/31 12:28:29;;;;;;;1.45;0.88;;;;;;;6.10;100.00;99891.72;15288811;19;20022;-56
2024/01/31 12:33:56;;;;;;;1.05;0.95;;;;;;;6.12;100.00;99876.41;15286226;19;20019;-56
2024/01/31 12:39:21;;;;;;;1.20;1.10;;;;;;;6.16;100.00;99875.28;15276739;19;20022;-56
2024/01/31 12:44:49;;;;;;;0.95;0.85;;;;;;;6.17;100.00;99864.44;15285023;19;20463;-54
2024/01/31 12:50:15;;;;;;;1.00;0.90;;;;;;;6.22;100.00;99847.25;15282448;19;20085;-56
2024/01/31 12:55:39;;;;;;;1.20;1.10;;;;;;;6.24;100.00;99850.69;15285174;19;20077;-56
2024/01/31 13:01:07;;;;;;;1.20;0.90;;;;;;;6.26;100.00;99822.03;15280836;19;20416;-56
2024/01/31 13:06:31;;;;;;;2.78;1.00;;;;;;;6.32;100.00;99802.88;15286642;19;20003;-56
2024/01/31 13:11:57;;;;;;;1.17;1.08;;;;;;;6.34;100.00;99792.09;15276933;19;20021;-55
2024/01/31 13:17:27;;;;;;;1.20;1.10;;;;;;;6.39;100.00;99790.81;15284814;19;20020;-56
2024/01/31 13:22:55;;;;;;;1.10;1.00;;;;;;;6.42;100.00;99785.25;15281127;19;20359;-55
2024/01/31 13:28:19;;;;;;;1.15;1.05;;;;;;;6.44;100.00;99775.31;15284915;19;20397;-55
2024/01/31 13:33:48;;;;;;;2.00;1.08;;;;;;;6.46;100.00;99778.75;15280474;19;20090;-55
2024/01/31 13:39:19;;;;;;;1.30;1.20;;;;;;;6.53;100.00;99778.31;15279805;19;20022;-57
2024/01/31 13:44:44;;;;;;;1.55;1.30;;;;;;;6.52;100.00;99774.78;15278979;19;20029;-58
2024/01/31 13:50:12;;;;;;;1.30;1.20;;;;;;;6.54;100.00;99772.00;15282634;19;20018;-54
2024/01/31 13:55:43;;;;;;;1.40;1.30;;;;;;;6.60;100.00;99769.78;15291028;19;20014;-55
2024/01/31 14:01:08;;;;;;;1.47;1.37;;;;;;;6.62;100.00;99750.94;15292424;19;20609;-56
2024/01/31 14:06:35;;;;;;;1.40;1.30;;;;;;;6.59;100.00;99748.47;15298961;19;20029;-54
2024/01/31 14:12:01;;;;;;;3.05;1.40;;;;;;;6.59;100.00;99753.81;15294763;19;20003;-57
2024/01/31 14:17:28;;;;;;;2.00;1.40;;;;;;;6.58;100.00;99749.44;15297235;19;20046;-56
2024/01/31 14:22:56;;;;;;;1.30;1.20;;;;;;;6.57;100.00;99743.22;15292110;19;20580;-56
2024/01/31 14:28:29;;;;;;;1.25;1.10;;;;;;;6.55;100.00;99746.94;15296822;19;20018;-54
2024/01/31 14:33:53;;;;;;;1.92;1.20;;;;;;;6.54;100.00;99730.03;15297842;19;20014;-55
2024/01/31 14:39:24;;;;;;;1.40;1.30;;;;;;;6.56;100.00;99727.25;15292569;19;20377;-56
2024/01/31 14:44:49;;;;;;;1.77;1.35;;;;;;;6.56;100.00;99740.63;15290474;19;20018;-55
2024/01/31 14:50:15;;;;;;;1.95;1.75;;;;;;;6.56;100.00;99719.22;15292818;19;20101;-54
2024/01/31 14:55:49;;;;;;;1.15;1.05;;;;;;;6.56;100.00;99711.19;15296065;19;20026;-53
2024/01/31 15:01:13;;;;;;;2.40;1.60;;;;;;;6.57;100.00;99696.84;15287561;19;20035;-56
2024/01/31 15:06:42;;;;;;;1.83;1.50;;;;;;;6.54;100.00;99687.19;15293072;19;20534;-57
2024/01/31 15:12:10;;;;;;;2.13;1.45;;;;;;;6.50;100.00;99680.31;15290111;19;20086;-58
2024/01/31 15:17:34;;;;;;;1.23;1.13;;;;;;;6.47;100.00;99678.72;15286346;19;20392;-57
2024/01/31 15:23:00;;;;;;;2.28;1.10;;;;;;;6.48;100.00;99683.13;15286605;19;20012;-57
2024/01/31 15:28:28;;;;;;;1.45;1.00;;;;;;;6.46;100.00;99687.72;15290252;19;20476;-54
2024/01/31 15:33:52;;;;;;;1.27;1.02;;;;;;;6.46;100.00;99694.91;15289220;19;20083;-56
2024/01/31 15:39:18;;;;;;;0.82;0.82;;;;;;;6.43;100.00;99668.31;15287559;19;20587;-56
2024/01/31 15:44:45;;;;;;;1.10;1.00;;;;;;;6.42;100.00;99672.81;15289610;19;20010;-55
2024/01/31 15:50:10;;;;;;;1.27;1.00;;;;;;;6.37;100.00;99650.88;15274693;19;20102;-55
2024/01/31 15:55:37;;;;;;;2.53;1.20;;;;;;;6.36;100.00;99675.91;15287078;19;20038;-56
2024/01/31 16:01:05;;;;;;;2.95;1.08;;;;;;;6.33;100.00;99678.78;15283795;19;20014;-57
2024/01/31 16:06:29;;;;;;;1.27;1.17;;;;;;;6.24;100.00;99663.34;15266276;19;20011;-55
2024/01/31 16:11:56;;;;;;;1.20;1.10;;;;;;;6.17;100.00;99650.38;15286140;19;20035;-56
2024/01/31 16:17:24;;;;;;;3.13;1.20;;;;;;;6.10;100.00;99653.59;15280422;19;20014;-54
2024/01/31 16:22:49;;;;;;;1.15;1.05;;;;;;;6.05;100.00;99647.66;15280511;19;20029;-57
2024/01/31 16:28:13;;;;;;;1.20;1.10;;;;;;;5.98;100.00;99647.19;15287679;19;20014;-55
2024/01/31 16:33:41;;;;;;;1.42;1.27;;;;;;;5.94;100.00;99635.00;15289039;19;20014;-56
2024/01/31 16:39:06;;;;;;;1.33;1.20;;;;;;;5.89;100.00;99645.13;15286300;19;20094;-53
2024/01/31 16:44:30;;;;;;;1.40;1.08;;;;;;;5.78;100.00;99627.09;15283489;19;20363;-57
2024/01/31 16:49:57;;;;;;;0.80;0.80;;;;;;;5.75;100.00;99619.28;15285140;19;20027;-55
2024/01/31 16:55:29;;;;;;;0.80;0.80;;;;;;;5.70;100.00;99603.56;15275337;19;20547;-53
2024/01/31 17:00:53;;;;;;;0.93;0.90;;;;;;;5.63;100.00;99604.91;15286008;19;20033;-56
2024/01/31 17:06:21;;;;;;;1.85;1.02;;;;;;;5.61;100.00;99604.13;15288697;19;20032;-56
2024/01/31 17:11:46;;;;;;;1.02;1.00;;;;;;;5.57;100.00;99581.25;15285126;19;20073;-54
2024/01/31 17:17:12;;;;;;;1.50;1.02;;;;;;;5.59;100.00;99579.31;15286695;19;20049;-56
2024/01/31 17:22:40;;;;;;;0.82;0.82;;;;;;;5.59;100.00;99563.28;15282507;19;20055;-55
2024/01/31 17:28:05;;;;;;;1.35;0.90;;;;;;;5.55;100.00;99566.16;15286629;19;20739;-52
2024/01/31 17:33:30;;;;;;;2.15;1.38;;;;;;;5.53;100.00;99548.50;15302782;19;20029;-53
2024/01/31 17:38:58;;;;;;;2.03;1.40;;;;;;;5.50;100.00;99536.19;15300952;19;20014;-54
2024/01/31 17:44:22;;;;;;;1.67;1.27;;;;;;;5.43;100.00;99532.22;15297249;19;20038;-56
2024/01/31 17:49:47;;;;;;;1.38;1.10;;;;;;;5.24;100.00;99533.41;15295225;19;20022;-56
2024/01/31 17:55:22;;;;;;;2.20;1.48;;;;;;;5.14;100.00;99524.28;15297578;19;20086;-54
2024/01/31 18:00:48;;;;;;;1.67;1.55;;;;;;;5.04;100.00;99513.34;15290657;19;20094;-54
2024/01/31 18:06:15;;;;;;;1.77;1.42;;;;;;;4.85;100.00;99511.00;15300992;19;20033;-54
2024/01/31 18:11:43;;;;;;;1.92;1.63;;;;;;;4.74;100.00;99492.16;15296940;19;20018;-52
2024/01/31 18:17:08;;;;;;;2.20;1.90;;;;;;;4.61;100.00;99476.91;15299357;19;20038;-54
2024/01/31 18:22:32;;;;;;;1.90;1.70;;;;;;;4.43;100.00;99480.72;15292778;19;20086;-56
2024/01/31 18:28:03;;;;;;;2.15;1.90;;;;;;;4.24;100.00;99468.53;15327949;19;20018;-55
2024/01/31 18:33:29;;;;;;;2.50;2.30;;;;;;;4.07;100.00;99458.03;15288230;19;20526;-55
2024/01/31 18:38:53;;;;;;;3.97;2.30;;;;;;;3.95;100.00;99457.84;15288575;19;20007;-56
2024/01/31 18:44:21;;;;;;;2.42;2.22;;;;;;;3.89;100.00;99447.56;15289415;19;20033;-51
2024/01/31 18:49:47;;;;;;;2.20;2.00;;;;;;;3.79;100.00;99443.75;15291393;19;20811;-51
2024/01/31 18:55:18;;;;;;;2.67;1.95;;;;;;;3.62;100.00;99442.94;15290746;19;20018;-56
2024/01/31 19:00:45;;;;;;;2.30;2.10;;;;;;;3.46;100.00;99435.00;15290549;19;20500;-55
2024/01/31 19:06:11;;;;;;;5.05;2.70;;;;;;;3.34;100.00;99433.06;15289488;19;20058;-56
2024/01/31 19:11:35;;;;;;;2.72;2.22;;;;;;;3.22;100.00;99440.81;15289699;19;20488;-55
2024/01/31 19:17:03;;;;;;;2.10;1.80;;;;;;;3.23;100.00;99436.38;15292925;19;20010;-55
2024/01/31 19:22:47;;;;;;;2.10;1.90;;;;;;;3.26;100.00;99428.19;15289545;19;20009;-55
2024/01/31 19:28:13;;;;;;;2.38;2.00;;;;;;;3.27;100.00;99426.38;15293370;19;20007;-54
2024/01/31 19:33:41;;;;;;;1.92;1.73;;;;;;;3.39;100.00;99425.66;15290273;19;20082;-55
2024/01/31 19:39:07;;;;;;;1.60;1.45;;;;;;;3.47;100.00;99418.06;15285707;19;20027;-53
2024/01/31 19:44:31;;;;;;;2.35;1.77;;;;;;;3.49;100.00;99420.63;15291427;19;20038;-52
2024/01/31 19:49:59;;;;;;;2.08;1.63;;;;;;;3.47;100.00;99419.88;15289089;19;20434;-58
2024/01/31 19:55:30;;;;;;;2.50;1.98;;;;;;;3.40;100.00;99416.72;15283882;19;20025;-51
2024/01/31 20:00:55;;;;;;;2.80;2.00;;;;;;;3.29;100.00;99398.72;15285927;19;20025;-54
2024/01/31 20:06:23;;;;;;;1.95;1.75;;;;;;;3.19;100.00;99386.88;15289670;19;20014;-54
2024/01/31 20:11:52;;;;;;;3.17;2.00;;;;;;;3.15;100.00;99364.03;15286043;19;20019;-55
2024/01/31 20:17:16;;;;;;;1.92;1.58;;;;;;;3.11;100.00;99365.19;15260722;19;20055;-55
2024/01/31 20:22:44;;;;;;;2.95;1.60;;;;;;;3.10;100.00;99345.69;15280710;19;20475;-52
2024/01/31 20:28:09;;;;;;;3.05;1.98;;;;;;;3.08;100.00;99329.81;15285665;19;20022;-55
2024/01/31 20:33:34;;;;;;;1.80;1.60;;;;;;;3.01;100.00;99324.94;15288748;19;20018;-55
2024/01/31 20:39:01;;;;;;;2.45;2.05;;;;;;;2.89;100.00;99305.19;15281576;19;20042;-55
2024/01/31 20:44:25;;;;;;;3.88;2.67;;;;;;;2.78;100.00;99282.75;15286950;19;20478;-55
2024/01/31 20:49:50;;;;;;;3.97;2.30;;;;;;;2.76;100.00;99274.00;15284386;19;20093;-55
2024/01/31 20:55:17;;;;;;;2.63;2.42;;;;;;;2.72;100.00;99271.59;15283126;19;20017;-56
2024/01/31 21:00:42;;;;;;;4.22;2.00;;;;;;;2.66;100.00;99256.00;15283633;19;20014;-55
2024/01/31 21:06:07;;;;;;;2.85;2.20;;;;;;;2.59;100.00;99234.22;15285386;19;20010;-55
2024/01/31 21:11:34;;;;;;;2.70;2.40;;;;;;;2.51;100.00;99220.53;15276019;19;20815;-55
2024/01/31 21:16:59;;;;;;;4.07;2.75;;;;;;;2.42;100.00;99211.28;15286553;19;20089;-55
2024/01/31 21:22:23;;;;;;;2.38;2.10;;;;;;;2.42;100.00;99211.28;15281793;19;20635;-51
2024/01/31 21:27:50;;;;;;;4.13;2.30;;;;;;;2.51;100.00;99183.28;15282084;19;20058;-55
2024/01/31 21:33:15;;;;;;;2.30;2.10;;;;;;;2.54;100.00;99191.06;15277148;19;20018;-48
2024/01/31 21:38:41;;;;;;;2.50;2.28;;;;;;;2.59;100.00;99191.66;15276010;19;20025;-50
2024/01/31 21:44:09;;;;;;;3.00;2.22;;;;;;;2.58;100.00;99176.66;15277182;19;20430;-51
2024/01/31 21:49:34;;;;;;;3.33;1.88;;;;;;;2.59;100.00;99175.69;15280895;19;20022;-49
2024/01/31 21:55:06;;;;;;;2.05;1.80;;;;;;;2.56;100.00;99178.53;15276239;19;20007;-48
2024/01/31 22:00:33;;;;;;;3.08;2.00;;;;;;;2.68;100.00;99188.44;15277424;19;20315;-52
2024/01/31 22:06:05;;;;;;;2.10;1.70;;;;;;;3.01;100.00;99203.31;15277542;19;20025;-49
2024/01/31 22:11:29;;;;;;;1.65;1.48;;;;;;;3.43;100.00;99191.91;15280577;19;20686;-49
2024/01/31 22:16:57;;;;;;;1.98;1.35;;;;;;;3.58;100.00;99190.94;15281645;19;20503;-48
2024/01/31 22:22:21;;;;;;;2.53;1.77;;;;;;;3.58;100.00;99177.63;15290036;19;20037;-52
2024/01/31 22:27:46;;;;;;;3.53;1.80;;;;;;;3.62;100.00;99171.13;15296090;19;20021;-49
2024/01/31 22:33:14;;;;;;;3.47;1.70;;;;;;;3.64;100.00;99173.72;15291568;19;20015;-53
2024/01/31 22:38:39;;;;;;;3.75;1.70;;;;;;;3.66;100.00;99148.66;15296129;19;20021;-51
2024/01/31 22:44:06;;;;;;;2.22;1.67;;;;;;;3.54;100.00;99128.13;15290862;19;20010;-49
2024/01/31 22:49:34;;;;;;;2.10;1.67;;;;;;;3.61;100.00;99137.44;14779346;19;10001343;-48
2024/01/31 22:55:06;;;;;;;3.05;1.70;;;;;;;3.70;100.00;99142.16;15293346;19;20027;-52
2024/01/31 23:00:31;;;;;;;1.65;1.42;;;;;;;3.77;100.00;99142.63;15291661;19;20022;-50
2024/01/31 23:05:58;;;;;;;2.95;1.60;;;;;;;3.82;100.00;99155.69;15294497;19;20018;-51
2024/01/31 23:11:23;;;;;;;1.58;1.48;;;;;;;3.98;100.00;99152.84;15292580;19;20025;-49
2024/01/31 23:16:47;;;;;;;2.95;1.38;;;;;;;3.99;100.00;99158.06;15291625;19;20527;-53
2024/01/31 23:22:14;;;;;;;1.90;1.50;;;;;;;3.93;100.00;99153.16;15286497;19;20058;-51
2024/01/31 23:27:39;;;;;;;2.05;1.45;;;;;;;3.97;100.00;99143.97;15293744;19;20033;-50
2024/01/31 23:33:05;;;;;;;1.90;1.30;;;;;;;4.01;100.00;99134.84;15283936;19;20418;-50
2024/01/31 23:38:34;;;;;;;2.35;1.33;;;;;;;4.14;100.00;99134.84;15289873;19;20019;-50
2024/01/31 23:43:59;;;;;;;3.75;1.40;;;;;;;4.16;100.00;99127.63;15289422;19;20021;-50
2024/01/31 23:49:23;;;;;;;2.35;1.40;;;;;;;4.19;100.00;99123.88;15288952;19;20024;-51
2024/01/31 23:54:57;;;;;;;1.55;1.20;;;;;;;4.19;100.00;99099.88;15283204;19;20019;-51
